createdAt,value
2022-07-30T00:03:03.010Z,18.50
2022-07-30T00:06:19.493Z,18.48
2022-07-30T00:09:36.326Z,18.44
2022-07-30T00:12:52.726Z,18.42
2022-07-30T00:16:09.335Z,18.42
2022-07-30T00:19:26.187Z,18.40
2022-07-30T00:22:42.595Z,18.38
2022-07-30T00:25:59.102Z,18.38
2022-07-30T00:29:16.173Z,18.34
2022-07-30T00:32:32.476Z,18.34
2022-07-30T00:35:49.115Z,18.33
2022-07-30T00:39:05.125Z,18.31
2022-07-30T00:42:23.334Z,18.28
2022-07-30T00:45:39.820Z,18.22
2022-07-30T00:48:56.222Z,18.18
2022-07-30T00:52:13.017Z,18.15
2022-07-30T00:55:29.255Z,18.14
2022-07-30T00:58:45.257Z,18.15
2022-07-30T01:02:02.575Z,18.19
2022-07-30T01:05:20.380Z,18.20
2022-07-30T01:08:37.234Z,18.23
2022-07-30T01:11:56.405Z,18.24
2022-07-30T01:15:13.329Z,18.27
2022-07-30T01:18:33.107Z,18.26
2022-07-30T01:21:55.274Z,18.26
2022-07-30T01:25:20.109Z,18.23
2022-07-30T01:28:44.402Z,18.18
2022-07-30T01:32:02.954Z,18.21
2022-07-30T01:35:19.355Z,18.20
2022-07-30T01:38:38.611Z,18.21
2022-07-30T01:41:57.071Z,18.24
2022-07-30T01:45:16.085Z,18.27
2022-07-30T01:48:35.933Z,18.27
2022-07-30T01:51:57.251Z,18.24
2022-07-30T01:55:18.236Z,18.23
2022-07-30T01:58:41.204Z,18.22
2022-07-30T02:02:02.236Z,18.22
2022-07-30T02:05:19.601Z,18.24
2022-07-30T02:08:41.194Z,18.24
2022-07-30T02:12:13.863Z,18.22
2022-07-30T02:15:35.756Z,18.16
2022-07-30T02:19:06.014Z,18.13
2022-07-30T02:22:26.933Z,18.13
2022-07-30T02:25:49.517Z,18.14
2022-07-30T02:29:11.401Z,18.03
2022-07-30T02:32:31.193Z,17.96
2022-07-30T02:35:49.099Z,17.88
2022-07-30T02:39:07.153Z,17.92
2022-07-30T02:42:26.927Z,17.99
2022-07-30T02:45:45.320Z,18.00
2022-07-30T02:49:05.004Z,18.00
2022-07-30T02:52:26.092Z,18.06
2022-07-30T02:55:44.223Z,17.98
2022-07-30T02:59:02.093Z,18.06
2022-07-30T03:02:28.903Z,18.08
2022-07-30T03:05:40.059Z,18.07
2022-07-30T03:08:56.633Z,18.09
2022-07-30T03:12:14.452Z,18.13
2022-07-30T03:15:32.033Z,18.12
2022-07-30T03:18:48.213Z,18.15
2022-07-30T03:22:08.065Z,18.10
2022-07-30T03:25:41.039Z,18.10
2022-07-30T03:29:08.147Z,18.13
2022-07-30T03:32:27.583Z,18.14
2022-07-30T03:35:45.442Z,18.15
2022-07-30T03:39:02.921Z,18.17
2022-07-30T03:42:19.615Z,18.17
2022-07-30T03:45:42.957Z,18.15
2022-07-30T03:49:00.300Z,18.12
2022-07-30T03:52:17.604Z,18.10
2022-07-30T03:55:35.149Z,18.08
2022-07-30T03:59:09.940Z,18.05
2022-07-30T04:02:28.266Z,18.08
2022-07-30T04:06:05.298Z,18.15
2022-07-30T04:09:22.781Z,18.19
2022-07-30T04:12:40.206Z,18.22
2022-07-30T04:16:41.081Z,18.23
2022-07-30T04:19:31.687Z,18.29
2022-07-30T04:23:09.228Z,18.31
2022-07-30T04:26:27.552Z,18.32
2022-07-30T04:29:45.097Z,18.37
2022-07-30T04:33:01.806Z,18.39
2022-07-30T04:36:26.145Z,18.41
2022-07-30T04:39:42.448Z,18.44
2022-07-30T04:42:58.620Z,18.45
2022-07-30T04:46:15.864Z,18.46
2022-07-30T04:49:35.344Z,18.45
2022-07-30T04:52:53.660Z,18.47
2022-07-30T04:56:13.667Z,18.46
2022-07-30T04:59:32.787Z,18.45
2022-07-30T05:02:52.217Z,18.46
2022-07-30T05:06:11.946Z,18.48
2022-07-30T05:09:30.258Z,18.49
2022-07-30T05:12:47.067Z,18.47
2022-07-30T05:16:06.028Z,18.48
2022-07-30T05:19:22.863Z,18.51
2022-07-30T05:22:39.582Z,18.54
2022-07-30T05:25:57.926Z,18.52
2022-07-30T05:29:22.069Z,18.48
2022-07-30T05:32:41.283Z,18.41
2022-07-30T05:36:01.338Z,18.48
2022-07-30T05:39:17.887Z,18.53
2022-07-30T05:42:46.871Z,18.56
2022-07-30T05:46:03.314Z,18.58
2022-07-30T05:49:19.792Z,18.63
2022-07-30T05:52:36.146Z,18.64
2022-07-30T05:55:54.232Z,18.67
2022-07-30T05:59:24.646Z,18.68
2022-07-30T06:02:49.277Z,18.66
2022-07-30T06:06:23.600Z,18.74
2022-07-30T06:09:40.155Z,18.82
2022-07-30T06:12:56.603Z,18.86
2022-07-30T06:16:15.697Z,18.90
2022-07-30T06:19:32.130Z,18.97
2022-07-30T06:22:48.736Z,19.00
2022-07-30T06:26:07.341Z,19.09
2022-07-30T06:29:26.239Z,19.13
2022-07-30T06:32:40.663Z,19.19
2022-07-30T06:35:57.347Z,19.22
2022-07-30T06:39:15.161Z,19.26
2022-07-30T06:42:50.328Z,19.28
2022-07-30T06:46:11.254Z,19.32
2022-07-30T06:49:29.339Z,19.37
2022-07-30T06:52:46.228Z,19.35
2022-07-30T06:56:02.458Z,19.39
2022-07-30T06:59:20.390Z,19.42
2022-07-30T07:02:47.937Z,19.47
2022-07-30T07:06:06.224Z,19.47
2022-07-30T07:09:23.613Z,19.46
2022-07-30T07:12:45.860Z,19.47
2022-07-30T07:16:04.906Z,19.45
2022-07-30T07:20:01.546Z,19.42
2022-07-30T07:22:39.810Z,19.44
2022-07-30T07:25:56.930Z,19.50
2022-07-30T07:29:13.801Z,19.52
2022-07-30T07:32:30.184Z,19.55
2022-07-30T07:35:49.857Z,19.54
2022-07-30T07:39:13.071Z,19.50
2022-07-30T07:42:31.936Z,19.49
2022-07-30T07:45:49.093Z,19.51
2022-07-30T07:49:06.222Z,19.56
2022-07-30T07:52:24.206Z,19.63
2022-07-30T07:55:42.736Z,19.66
2022-07-30T07:58:59.717Z,19.69
2022-07-30T08:02:17.533Z,19.70
2022-07-30T08:06:01.108Z,19.75
2022-07-30T08:09:10.593Z,19.79
2022-07-30T08:12:31.752Z,19.83
2022-07-30T08:15:52.458Z,19.88
2022-07-30T08:19:26.386Z,19.94
2022-07-30T08:22:47.044Z,19.98
2022-07-30T08:26:04.234Z,20.03
2022-07-30T08:29:22.015Z,20.03
2022-07-30T08:32:38.698Z,20.10
2022-07-30T08:35:59.316Z,20.15
2022-07-30T08:39:13.852Z,20.21
2022-07-30T08:42:33.149Z,20.29
2022-07-30T08:45:53.577Z,20.39
2022-07-30T08:49:19.757Z,20.51
2022-07-30T08:53:00.787Z,20.53
2022-07-30T08:56:24.235Z,20.61
2022-07-30T08:59:59.179Z,20.60
2022-07-30T09:03:08.815Z,20.62
2022-07-30T09:06:26.388Z,20.70
2022-07-30T09:09:44.195Z,20.75
2022-07-30T09:13:00.480Z,20.82
2022-07-30T09:16:26.843Z,20.89
2022-07-30T09:19:45.011Z,20.95
2022-07-30T09:23:04.409Z,21.02
2022-07-30T09:26:20.291Z,21.08
2022-07-30T09:29:50.427Z,21.12
2022-07-30T09:33:40.327Z,21.14
2022-07-30T09:37:13.036Z,21.17
2022-07-30T09:40:37.638Z,21.20
2022-07-30T09:43:59.693Z,21.22
2022-07-30T09:47:43.404Z,21.25
2022-07-30T09:51:01.100Z,21.28
2022-07-30T09:54:27.360Z,21.33
2022-07-30T09:57:50.296Z,21.41
2022-07-30T10:01:06.176Z,21.47
2022-07-30T10:04:56.005Z,21.61
2022-07-30T10:08:16.461Z,21.73
2022-07-30T10:11:34.379Z,21.84
2022-07-30T10:14:54.283Z,21.96
2022-07-30T10:18:24.934Z,22.13
2022-07-30T10:22:12.144Z,22.26
2022-07-30T10:26:03.767Z,22.39
2022-07-30T10:33:41.219Z,22.56
2022-07-30T10:37:04.788Z,22.73
2022-07-30T10:40:30.719Z,22.84
2022-07-30T10:44:10.342Z,22.91
2022-07-30T10:47:34.295Z,22.87
2022-07-30T10:51:01.191Z,22.99
2022-07-30T10:54:45.455Z,23.17
2022-07-30T10:58:12.322Z,23.37
2022-07-30T11:01:30.741Z,23.37
2022-07-30T11:04:47.142Z,23.39
2022-07-30T11:08:05.014Z,23.30
2022-07-30T11:12:02.350Z,23.34
2022-07-30T11:15:19.135Z,23.25
2022-07-30T11:18:33.719Z,23.18
2022-07-30T11:21:51.095Z,23.10
2022-07-30T11:25:12.659Z,23.10
2022-07-30T11:28:45.967Z,23.08
2022-07-30T11:32:06.915Z,23.08
2022-07-30T11:35:35.122Z,23.11
2022-07-30T11:39:07.707Z,23.12
2022-07-30T11:42:38.493Z,23.14
2022-07-30T11:45:55.695Z,23.22
2022-07-30T11:49:13.630Z,23.25
2022-07-30T11:52:34.217Z,23.28
2022-07-30T11:55:54.134Z,23.23
2022-07-30T11:59:16.285Z,23.24
2022-07-30T12:02:40.528Z,23.24
2022-07-30T12:05:58.037Z,23.25
2022-07-30T12:09:14.482Z,23.25
2022-07-30T12:12:34.902Z,23.26
2022-07-30T12:15:56.729Z,23.27
2022-07-30T12:19:15.272Z,23.30
2022-07-30T12:22:31.966Z,23.32
2022-07-30T12:25:51.138Z,23.33
2022-07-30T12:29:10.861Z,23.34
2022-07-30T12:32:27.316Z,23.31
2022-07-30T12:35:58.749Z,23.45
2022-07-30T12:39:18.806Z,23.50
2022-07-30T12:42:35.074Z,23.58
2022-07-30T12:45:54.187Z,23.65
2022-07-30T12:49:22.938Z,23.62
2022-07-30T12:52:35.605Z,23.67
2022-07-30T12:55:52.097Z,23.73
2022-07-30T12:59:08.960Z,23.80
2022-07-30T13:02:40.454Z,23.82
2022-07-30T13:05:59.605Z,23.84
2022-07-30T13:09:25.390Z,23.85
2022-07-30T13:12:41.945Z,23.86
2022-07-30T13:16:09.133Z,23.86
2022-07-30T13:19:25.615Z,23.85
2022-07-30T13:22:42.049Z,23.86
2022-07-30T13:25:58.553Z,23.87
2022-07-30T13:29:14.773Z,23.88
2022-07-30T13:32:33.731Z,23.90
2022-07-30T13:35:50.087Z,23.82
2022-07-30T13:39:06.394Z,23.67
2022-07-30T13:42:23.063Z,23.53
2022-07-30T13:45:39.906Z,23.42
2022-07-30T13:48:56.165Z,23.29
2022-07-30T13:52:12.713Z,23.13
2022-07-30T13:55:29.132Z,22.98
2022-07-30T13:58:45.359Z,22.90
2022-07-30T14:02:04.431Z,22.84
2022-07-30T14:05:20.936Z,22.80
2022-07-30T14:08:37.152Z,22.66
2022-07-30T14:11:53.589Z,22.56
2022-07-30T14:15:13.823Z,22.48
2022-07-30T14:18:28.604Z,22.40
2022-07-30T14:21:46.077Z,22.33
2022-07-30T14:25:03.480Z,22.25
2022-07-30T14:28:19.782Z,22.19
2022-07-30T14:31:35.969Z,22.17
2022-07-30T14:34:52.478Z,22.07
2022-07-30T14:38:09.058Z,21.98
2022-07-30T14:41:26.251Z,21.94
2022-07-30T14:44:43.082Z,21.94
2022-07-30T14:47:59.782Z,21.99
2022-07-30T14:51:25.542Z,22.01
2022-07-30T14:54:37.380Z,21.91
2022-07-30T14:57:57.368Z,21.91
2022-07-30T15:01:16.277Z,21.89
2022-07-30T15:04:32.431Z,21.86
2022-07-30T15:07:51.231Z,21.85
2022-07-30T15:11:09.630Z,21.79
2022-07-30T15:14:28.383Z,21.79
2022-07-30T15:17:44.912Z,21.78
2022-07-30T15:21:02.627Z,21.76
2022-07-30T15:24:20.071Z,21.73
2022-07-30T15:27:38.454Z,21.73
2022-07-30T15:30:56.350Z,21.72
2022-07-30T15:34:13.488Z,21.68
2022-07-30T15:37:29.666Z,21.69
2022-07-30T15:40:45.834Z,21.64
2022-07-30T15:44:02.035Z,21.59
2022-07-30T15:47:20.150Z,21.55
2022-07-30T15:50:36.286Z,21.49
2022-07-30T15:53:54.044Z,21.47
2022-07-30T15:57:10.332Z,21.45
2022-07-30T16:00:27.294Z,21.36
2022-07-30T16:03:42.991Z,21.31
2022-07-30T16:06:59.133Z,21.27
2022-07-30T16:10:16.985Z,21.24
2022-07-30T16:13:33.203Z,21.23
2022-07-30T16:16:49.442Z,21.19
2022-07-30T16:20:06.901Z,21.19
2022-07-30T16:23:23.023Z,21.16
2022-07-30T16:26:39.331Z,21.13
2022-07-30T16:29:55.412Z,21.10
2022-07-30T16:33:11.920Z,21.05
2022-07-30T16:36:28.126Z,21.00
2022-07-30T16:39:44.224Z,20.98
2022-07-30T16:43:02.327Z,20.94
2022-07-30T16:46:21.625Z,20.93
2022-07-30T16:49:37.774Z,20.88
2022-07-30T16:52:57.188Z,20.88
2022-07-30T16:56:13.687Z,20.84
2022-07-30T16:59:29.923Z,20.77
2022-07-30T17:02:45.629Z,20.75
2022-07-30T17:06:02.104Z,20.73
2022-07-30T17:09:21.414Z,20.69
2022-07-30T17:12:37.975Z,20.67
2022-07-30T17:15:56.486Z,20.65
2022-07-30T17:19:12.608Z,20.64
2022-07-30T17:22:29.687Z,20.61
2022-07-30T17:25:46.071Z,20.55
2022-07-30T17:29:02.286Z,20.52
2022-07-30T17:32:19.017Z,20.51
2022-07-30T17:35:35.418Z,20.47
2022-07-30T17:38:51.978Z,20.46
2022-07-30T17:42:08.397Z,20.43
2022-07-30T17:45:25.134Z,20.43
2022-07-30T17:48:41.269Z,20.43
2022-07-30T17:51:57.387Z,20.43
2022-07-30T17:55:24.631Z,20.40
2022-07-30T17:58:41.113Z,20.34
2022-07-30T18:01:59.614Z,20.32
2022-07-30T18:05:19.732Z,20.26
2022-07-30T18:08:37.641Z,20.24
2022-07-30T18:11:54.380Z,20.24
2022-07-30T18:15:12.263Z,20.18
2022-07-30T18:18:28.837Z,20.18
2022-07-30T18:21:45.144Z,20.13
2022-07-30T18:25:02.885Z,20.11
2022-07-30T18:28:22.070Z,20.10
2022-07-30T18:31:39.956Z,20.09
2022-07-30T18:34:56.309Z,20.07
2022-07-30T18:38:12.677Z,20.04
2022-07-30T18:41:30.041Z,20.00
2022-07-30T18:44:46.200Z,19.94
2022-07-30T18:48:02.943Z,19.88
2022-07-30T18:51:19.518Z,19.76
2022-07-30T18:54:40.052Z,19.65
2022-07-30T18:57:54.166Z,19.64
2022-07-30T19:01:13.051Z,19.62
2022-07-30T19:04:29.754Z,19.59
2022-07-30T19:07:56.980Z,19.56
2022-07-30T19:11:02.677Z,19.57
2022-07-30T19:14:20.845Z,19.52
2022-07-30T19:17:45.999Z,19.51
2022-07-30T19:21:00.166Z,19.52
2022-07-30T19:24:18.121Z,19.54
2022-07-30T19:27:34.262Z,19.49
2022-07-30T19:30:50.730Z,19.50
2022-07-30T19:34:07.844Z,19.51
2022-07-30T19:37:24.559Z,19.52
2022-07-30T19:40:42.936Z,19.51
2022-07-30T19:44:01.798Z,19.52
2022-07-30T19:47:20.818Z,19.52
2022-07-30T19:50:38.938Z,19.50
2022-07-30T19:53:55.159Z,19.46
2022-07-30T19:57:11.413Z,19.45
2022-07-30T20:00:28.461Z,19.45
2022-07-30T20:03:45.350Z,19.45
2022-07-30T20:07:02.495Z,19.45
2022-07-30T20:10:22.906Z,19.43
2022-07-30T20:13:44.984Z,19.39
2022-07-30T20:17:02.190Z,19.42
2022-07-30T20:20:26.157Z,19.40
2022-07-30T20:23:38.404Z,19.38
2022-07-30T20:26:55.966Z,19.40
2022-07-30T20:30:13.961Z,19.39
2022-07-30T20:33:37.925Z,19.40
2022-07-30T20:36:48.538Z,19.40
2022-07-30T20:40:06.661Z,19.39
2022-07-30T20:43:24.501Z,19.37
2022-07-30T20:46:45.935Z,19.33
2022-07-30T20:50:09.673Z,19.30
2022-07-30T20:53:25.282Z,19.28
2022-07-30T20:56:44.245Z,19.24
2022-07-30T21:00:00.405Z,19.21
2022-07-30T21:03:17.479Z,19.17
2022-07-30T21:06:35.038Z,19.15
2022-07-30T21:09:52.521Z,19.15
2022-07-30T21:13:09.006Z,19.01
2022-07-30T21:16:30.959Z,19.00
2022-07-30T21:19:47.075Z,18.96
2022-07-30T21:23:11.403Z,18.97
2022-07-30T21:26:28.417Z,18.98
2022-07-30T21:29:44.770Z,18.98
2022-07-30T21:33:02.768Z,18.96
2022-07-30T21:36:24.775Z,18.92
2022-07-30T21:39:39.799Z,18.89
2022-07-30T21:42:55.562Z,18.87
2022-07-30T21:46:12.748Z,18.82
2022-07-30T21:49:29.002Z,18.74
2022-07-30T21:52:44.620Z,18.68
2022-07-30T21:56:00.867Z,18.67
2022-07-30T21:59:17.348Z,18.65
2022-07-30T22:02:35.330Z,18.62
2022-07-30T22:05:53.717Z,18.64
2022-07-30T22:09:19.218Z,18.58
2022-07-30T22:12:29.692Z,18.56
2022-07-30T22:15:48.721Z,18.58
2022-07-30T22:19:06.227Z,18.54
2022-07-30T22:22:26.981Z,18.56
2022-07-30T22:29:01.187Z,18.54
2022-07-30T22:32:17.892Z,18.47
2022-07-30T22:35:34.423Z,18.43
2022-07-30T22:38:58.875Z,18.38
2022-07-30T22:42:12.586Z,18.35
2022-07-30T22:45:49.133Z,18.39
2022-07-30T22:48:47.087Z,18.37
2022-07-30T22:52:24.420Z,18.33
2022-07-30T22:55:25.505Z,18.32
2022-07-30T22:58:43.170Z,18.25
2022-07-30T23:01:59.495Z,18.19
2022-07-30T23:05:18.336Z,18.19
2022-07-30T23:08:34.542Z,18.12
2022-07-30T23:11:50.787Z,18.09
2022-07-30T23:12:28.741Z,18.56
2022-07-30T23:15:08.258Z,18.10
2022-07-30T23:18:24.495Z,18.09
2022-07-30T23:21:40.887Z,18.04
2022-07-30T23:24:58.886Z,18.02
2022-07-30T23:28:14.950Z,18.00
2022-07-30T23:31:32.614Z,18.01
2022-07-30T23:34:48.727Z,17.99
2022-07-30T23:38:05.058Z,17.96
2022-07-30T23:41:29.815Z,17.94
2022-07-30T23:44:40.197Z,17.92
2022-07-30T23:48:02.738Z,17.84
2022-07-30T23:51:14.705Z,17.81
2022-07-30T23:54:33.074Z,17.78
2022-07-30T23:57:49.394Z,17.76
